Time;durP1;ratioP1;P1;durP2;ratioP2;P2;SDS_P1;SDS_P2;PMS_P1;PMS_P2;Temp;Humidity;BMP_temperature;BMP_pressure;BME280_temperature;BME280_humidity;BME280_pressure;Samples;Min_cycle;Max_cycle;Signal;HPM_P1;HPM_P2
2023/12/23 00:01:28;;;;;;;1.83;0.70;;;;;;;0.78;100.00;99000.31;5067769;28;20426;-77
2023/12/23 00:03:54;;;;;;;1.77;0.55;;;;;;;0.81;100.00;98984.28;5070145;28;20036;-77
2023/12/23 00:06:19;;;;;;;3.70;0.77;;;;;;;0.71;100.00;98954.59;5076056;28;20028;-78
2023/12/23 00:08:44;;;;;;;3.42;0.88;;;;;;;0.69;100.00;98959.16;5088158;28;20555;-77
2023/12/23 00:11:10;;;;;;;1.17;0.40;;;;;;;0.70;100.00;98955.53;5077093;28;20392;-77
2023/12/23 00:13:35;;;;;;;2.58;0.60;;;;;;;0.79;100.00;98954.69;5084798;28;20059;-76
2023/12/23 00:16:00;;;;;;;4.38;0.75;;;;;;;0.69;100.00;98937.31;5087258;28;20021;-77
2023/12/23 00:18:25;;;;;;;8.82;2.05;;;;;;;0.83;100.00;98940.28;5084718;28;20040;-78
2023/12/23 00:20:51;;;;;;;5.95;0.52;;;;;;;0.72;100.00;98902.88;5077574;28;20043;-77
2023/12/23 00:23:16;;;;;;;3.92;0.82;;;;;;;0.78;100.00;98908.38;5084822;28;20035;-77
2023/12/23 00:25:42;;;;;;;3.17;0.43;;;;;;;0.82;100.00;98887.91;5083858;28;20086;-78
2023/12/23 00:28:07;;;;;;;0.88;0.50;;;;;;;0.91;100.00;98899.31;5088692;28;20526;-77
2023/12/23 00:30:32;;;;;;;1.52;0.40;;;;;;;0.83;100.00;98892.19;5062511;28;20728;-77
2023/12/23 00:32:58;;;;;;;1.77;0.20;;;;;;;0.81;100.00;98883.63;5080711;28;20115;-77
2023/12/23 00:35:26;;;;;;;2.22;0.52;;;;;;;0.86;100.00;98901.56;5080144;28;20090;-77
2023/12/23 00:37:51;;;;;;;1.52;0.40;;;;;;;0.93;100.00;98908.72;5072050;28;20037;-76
2023/12/23 00:40:17;;;;;;;4.63;0.55;;;;;;;0.77;100.00;98885.72;5072648;28;20124;-77
2023/12/23 00:42:42;;;;;;;1.58;0.50;;;;;;;0.85;100.00;98903.38;5068139;28;20028;-77
2023/12/23 00:45:08;;;;;;;1.35;0.40;;;;;;;0.78;100.00;98910.19;5057147;28;20028;-77
2023/12/23 00:47:33;;;;;;;4.80;1.33;;;;;;;0.81;100.00;98929.09;5080517;28;20031;-76
2023/12/23 00:49:59;;;;;;;6.60;0.77;;;;;;;0.86;100.00;98933.09;5082158;28;20138;-77
2023/12/23 00:52:24;;;;;;;4.25;0.40;;;;;;;0.71;100.00;98928.31;5080518;28;20037;-78
2023/12/23 00:54:49;;;;;;;3.40;0.55;;;;;;;0.84;100.00;98970.00;5064314;28;20074;-77
2023/12/23 00:57:15;;;;;;;2.50;0.70;;;;;;;0.90;100.00;98987.03;5071082;28;20048;-77
2023/12/23 00:59:40;;;;;;;7.43;0.95;;;;;;;0.94;100.00;98980.50;5068473;28;20063;-77
2023/12/23 01:02:06;;;;;;;3.35;0.75;;;;;;;0.97;100.00;98991.56;5069405;28;20040;-76
2023/12/23 01:04:31;;;;;;;0.73;0.47;;;;;;;0.97;100.00;98998.63;5076755;28;20036;-77
2023/12/23 01:06:57;;;;;;;3.60;1.02;;;;;;;0.88;100.00;98987.16;5075911;28;20039;-76
2023/12/23 01:09:22;;;;;;;4.47;1.30;;;;;;;0.96;100.00;99010.94;5088699;28;20028;-77
2023/12/23 01:11:47;;;;;;;7.25;1.90;;;;;;;0.91;100.00;98994.75;5066737;28;20036;-77
2023/12/23 01:14:13;;;;;;;8.23;0.93;;;;;;;0.99;100.00;99015.06;5058244;28;20120;-78
2023/12/23 01:16:38;;;;;;;8.93;0.98;;;;;;;1.07;100.00;99015.16;5084274;28;20027;-78
2023/12/23 01:19:05;;;;;;;7.60;1.05;;;;;;;1.11;100.00;99015.72;5086081;28;20046;-78
2023/12/23 01:21:30;;;;;;;13.05;1.23;;;;;;;1.14;100.00;99032.00;5072560;28;20012;-78
2023/12/23 01:23:56;;;;;;;7.85;1.10;;;;;;;1.19;100.00;99032.41;5086489;28;20534;-77
2023/12/23 01:26:21;;;;;;;5.93;1.30;;;;;;;1.11;100.00;99029.69;5066676;28;20040;-77
2023/12/23 01:28:47;;;;;;;5.93;0.73;;;;;;;1.13;100.00;99029.53;5082375;28;20028;-77
2023/12/23 01:31:12;;;;;;;4.45;0.90;;;;;;;1.15;100.00;99017.09;5071314;28;20037;-78
2023/12/23 01:33:37;;;;;;;12.67;1.03;;;;;;;1.18;100.00;98990.50;5090880;28;20122;-78
2023/12/23 01:36:05;;;;;;;10.43;1.65;;;;;;;1.19;100.00;98994.78;5085195;28;20311;-77
2023/12/23 01:38:33;;;;;;;3.75;1.10;;;;;;;1.14;100.00;98989.94;5074476;28;20111;-78
2023/12/23 01:40:58;;;;;;;8.98;2.08;;;;;;;1.11;100.00;98969.22;5072396;28;20404;-78
2023/12/23 01:43:24;;;;;;;5.13;1.42;;;;;;;1.22;100.00;98982.19;5076756;28;20028;-77
2023/12/23 01:45:50;;;;;;;3.37;0.70;;;;;;;1.18;100.00;98954.53;5060294;28;20041;-77
2023/12/23 01:48:15;;;;;;;7.85;1.20;;;;;;;1.26;100.00;98935.38;5058899;28;20297;-78
2023/12/23 01:50:41;;;;;;;5.85;1.20;;;;;;;1.29;100.00;98929.00;5083775;28;20038;-77
2023/12/23 01:53:07;;;;;;;6.07;1.27;;;;;;;1.31;100.00;98911.28;5083098;28;20032;-78
2023/12/23 01:55:33;;;;;;;9.32;2.35;;;;;;;1.31;100.00;98906.03;5090180;28;20120;-78
2023/12/23 01:57:58;;;;;;;;;;;;;;;1.38;100.00;98907.94;5073753;28;20032;-77
2023/12/23 02:00:24;;;;;;;5.35;1.20;;;;;;;1.40;100.00;98884.91;5081554;28;19923;-78
2023/12/23 02:02:49;;;;;;;9.90;1.13;;;;;;;1.41;100.00;98883.13;5071755;28;20012;-77
2023/12/23 02:05:15;;;;;;;7.93;2.03;;;;;;;1.43;100.00;98857.53;5071573;28;20109;-78
2023/12/23 02:07:44;;;;;;;11.23;2.42;;;;;;;1.46;100.00;98847.50;5078776;28;20395;-78
2023/12/23 02:10:10;;;;;;;11.73;2.00;;;;;;;1.46;100.00;98826.47;5091020;28;20047;-78
2023/12/23 02:13:11;;;;;;;10.65;1.40;;;;;;;1.52;100.00;98809.25;5076179;28;20020;-79
2023/12/23 02:15:37;;;;;;;15.65;2.00;;;;;;;1.52;100.00;98785.56;5096136;28;20092;-78
2023/12/23 02:18:02;;;;;;;15.85;2.05;;;;;;;1.59;100.00;98783.16;5074584;28;20036;-77
2023/12/23 02:20:28;;;;;;;9.73;0.90;;;;;;;1.57;100.00;98770.19;5086417;28;20039;-77
2023/12/23 02:22:54;;;;;;;10.23;1.67;;;;;;;1.60;100.00;98795.34;5091721;28;20051;-77
2023/12/23 02:25:20;;;;;;;16.40;2.53;;;;;;;1.45;100.00;98763.50;5076335;28;20068;-78
2023/12/23 02:27:50;;;;;;;6.97;1.88;;;;;;;1.60;100.00;98776.94;5086600;28;20656;-78
2023/12/23 02:30:15;;;;;;;11.57;1.17;;;;;;;1.61;100.00;98771.50;5091392;28;20135;-78
2023/12/23 02:32:43;;;;;;;8.73;1.17;;;;;;;1.65;100.00;98772.88;5090962;28;20632;-77
2023/12/23 02:35:09;;;;;;;13.13;2.10;;;;;;;1.57;100.00;98758.81;5092436;28;20035;-79
2023/12/23 02:37:34;;;;;;;4.10;1.08;;;;;;;1.65;100.00;98783.38;5091278;28;20024;-79
2023/12/23 02:39:59;;;;;;;9.10;1.48;;;;;;;1.73;100.00;98802.84;5087464;28;20039;-78
2023/12/23 02:42:25;;;;;;;6.45;1.85;;;;;;;1.63;100.00;98790.59;5073899;28;20016;-77
2023/12/23 02:44:51;;;;;;;6.13;0.93;;;;;;;1.61;100.00;98782.03;5084844;28;20068;-77
2023/12/23 02:47:16;;;;;;;11.48;3.15;;;;;;;1.75;100.00;98772.75;5081872;28;20041;-78
2023/12/23 02:49:41;;;;;;;8.85;1.88;;;;;;;1.82;100.00;98770.34;5077240;28;20361;-77
2023/12/23 02:52:06;;;;;;;8.15;1.08;;;;;;;1.81;100.00;98760.81;5083090;28;20554;-77
2023/12/23 02:54:32;;;;;;;9.40;1.20;;;;;;;1.83;100.00;98753.59;5090437;28;20636;-78
2023/12/23 02:56:57;;;;;;;7.82;1.30;;;;;;;1.77;100.00;98762.09;5065739;28;20029;-79
2023/12/23 02:59:23;;;;;;;5.10;0.93;;;;;;;1.86;100.00;98769.88;5073698;28;20674;-77
2023/12/23 03:01:48;;;;;;;8.17;1.60;;;;;;;1.81;100.00;98771.34;5090485;28;20040;-78
2023/12/23 03:04:13;;;;;;;6.80;1.90;;;;;;;1.86;100.00;98776.94;5090509;28;20286;-78
2023/12/23 03:06:39;;;;;;;8.52;2.25;;;;;;;1.81;100.00;98768.69;5090487;28;20293;-78
2023/12/23 03:09:04;;;;;;;14.88;1.58;;;;;;;1.72;100.00;98774.88;5073109;28;20039;-77
2023/12/23 03:11:30;;;;;;;11.82;1.55;;;;;;;1.71;100.00;98786.38;5071674;28;20032;-77
2023/12/23 03:13:55;;;;;;;15.35;2.25;;;;;;;1.82;100.00;98829.06;5086481;28;20039;-77
2023/12/23 03:16:20;;;;;;;13.02;2.55;;;;;;;1.82;100.00;98825.59;5065018;28;20387;-78
2023/12/23 03:18:46;;;;;;;12.15;1.42;;;;;;;1.77;100.00;98833.94;5058930;28;20040;-78
2023/12/23 03:21:11;;;;;;;15.77;2.55;;;;;;;1.99;100.00;98834.44;5061548;28;20037;-77
2023/12/23 03:23:37;;;;;;;15.60;2.22;;;;;;;1.95;100.00;98810.25;5081260;28;20043;-78
2023/12/23 03:26:03;;;;;;;11.73;1.80;;;;;;;1.89;100.00;98795.06;5078184;28;20024;-78
2023/12/23 03:28:28;;;;;;;15.93;1.73;;;;;;;1.97;100.00;98800.38;5077005;28;20041;-78
2023/12/23 03:30:54;;;;;;;9.85;2.05;;;;;;;2.04;100.00;98806.69;5069506;28;20051;-79
2023/12/23 03:33:20;;;;;;;11.77;1.77;;;;;;;1.99;100.00;98774.75;5080885;28;20036;-78
2023/12/23 03:35:45;;;;;;;13.85;1.75;;;;;;;2.06;100.00;98740.69;5089860;28;20032;-78
2023/12/23 03:38:10;;;;;;;10.33;2.00;;;;;;;2.03;100.00;98689.19;5082773;28;20088;-78
2023/12/23 03:40:36;;;;;;;11.17;2.33;;;;;;;2.20;100.00;98684.00;5082620;28;20281;-78
2023/12/23 03:43:01;;;;;;;10.23;1.77;;;;;;;2.22;100.00;98677.56;5090673;28;20274;-78
2023/12/23 03:45:26;;;;;;;14.35;1.60;;;;;;;2.27;100.00;98672.69;5090934;28;20281;-78
2023/12/23 03:47:52;;;;;;;11.27;1.42;;;;;;;2.24;100.00;98661.63;5084114;28;20060;-78
2023/12/23 03:50:17;;;;;;;22.63;2.30;;;;;;;2.25;100.00;98632.53;5082495;28;20021;-79
2023/12/23 03:52:42;;;;;;;10.82;2.53;;;;;;;2.22;100.00;98624.09;5089333;28;20285;-78
2023/12/23 03:55:11;;;;;;;10.07;1.77;;;;;;;2.37;100.00;98633.03;5071969;28;20039;-78
2023/12/23 03:57:36;;;;;;;36.78;2.42;;;;;;;2.35;100.00;98626.28;5085293;28;20352;-77
2023/12/23 04:00:03;;;;;;;23.13;3.42;;;;;;;2.35;100.00;98636.81;5080677;28;20085;-79
2023/12/23 04:02:39;;;;;;;11.90;1.50;;;;;;;2.32;100.00;98616.91;5084750;28;20120;-78
2023/12/23 04:05:05;;;;;;;12.32;1.70;;;;;;;2.38;100.00;98589.09;5080431;28;20874;-78
2023/12/23 04:07:30;;;;;;;7.18;1.48;;;;;;;2.40;100.00;98561.59;5066827;28;20081;-78
2023/12/23 04:09:55;;;;;;;10.30;1.88;;;;;;;2.43;100.00;98571.78;5072066;28;20036;-78
2023/12/23 04:12:21;;;;;;;11.57;1.83;;;;;;;2.38;100.00;98536.41;5060394;28;20032;-79
2023/12/23 04:14:47;;;;;;;11.32;2.25;;;;;;;2.51;100.00;98563.91;5084598;28;20054;-77
2023/12/23 04:17:12;;;;;;;13.30;2.00;;;;;;;2.52;100.00;98588.44;5063515;28;20635;-78
2023/12/23 04:19:37;;;;;;;13.55;2.33;;;;;;;2.48;100.00;98595.00;5071859;28;20442;-77
2023/12/23 04:22:03;;;;;;;13.10;2.13;;;;;;;2.56;100.00;98617.94;5065738;28;20062;-78
2023/12/23 04:24:28;;;;;;;6.43;1.58;;;;;;;2.57;100.00;98636.19;5071670;28;20026;-78
2023/12/23 04:26:54;;;;;;;13.05;2.55;;;;;;;2.63;100.00;98642.63;5080788;28;20060;-78
2023/12/23 04:29:19;;;;;;;15.18;2.50;;;;;;;2.57;100.00;98683.59;5086346;28;20518;-77
2023/12/23 04:31:44;;;;;;;4.38;2.08;;;;;;;2.50;100.00;98695.78;5067921;28;20076;-78
2023/12/23 04:34:10;;;;;;;7.60;1.48;;;;;;;2.56;100.00;98699.59;5063857;28;20118;-78
2023/12/23 04:36:37;;;;;;;;;;;;;;;2.52;100.00;98692.00;5072332;28;20574;-78
2023/12/23 04:39:05;;;;;;;22.90;2.83;;;;;;;2.56;100.00;98736.47;5074303;28;19912;-78
2023/12/23 04:41:34;;;;;;;11.55;2.72;;;;;;;2.52;100.00;98749.94;5072699;28;20487;-78
2023/12/23 04:44:02;;;;;;;8.65;1.23;;;;;;;2.50;100.00;98803.78;5078802;28;20088;-78
2023/12/23 04:46:28;;;;;;;9.18;1.95;;;;;;;2.50;100.00;98852.00;5072381;28;20020;-78
2023/12/23 04:48:53;;;;;;;5.60;1.77;;;;;;;2.45;100.00;98864.81;5088583;28;20032;-78
2023/12/23 04:51:19;;;;;;;6.63;1.20;;;;;;;2.42;100.00;98894.13;5060585;28;20085;-78
2023/12/23 04:53:44;;;;;;;6.07;0.98;;;;;;;2.49;100.00;98941.75;5078256;28;20479;-78
2023/12/23 04:56:09;;;;;;;17.97;1.00;;;;;;;2.43;100.00;98945.81;5063361;28;20116;-78
2023/12/23 04:58:35;;;;;;;6.65;1.70;;;;;;;2.41;100.00;98989.09;5060657;28;20068;-78
2023/12/23 05:01:01;;;;;;;15.18;2.20;;;;;;;2.43;100.00;99011.66;5088103;28;20123;-78
2023/12/23 05:03:31;;;;;;;10.10;2.20;;;;;;;2.51;100.00;99042.53;5080667;28;20012;-78
2023/12/23 05:05:57;;;;;;;12.35;1.38;;;;;;;2.53;100.00;99040.56;5089387;28;20028;-78
2023/12/23 05:08:22;;;;;;;6.95;1.80;;;;;;;2.53;100.00;99057.19;5088487;28;20008;-78
2023/12/23 05:10:47;;;;;;;13.23;1.73;;;;;;;2.40;100.00;99055.94;5072256;28;20678;-78
2023/12/23 05:13:14;;;;;;;13.98;1.00;;;;;;;2.53;100.00;99103.81;5088989;28;20728;-78
2023/12/23 05:15:39;;;;;;;4.68;1.20;;;;;;;2.46;100.00;99103.56;5080265;28;20491;-77
2023/12/23 05:18:05;;;;;;;5.35;1.45;;;;;;;2.47;100.00;99131.56;5074404;28;20020;-78
2023/12/23 05:20:30;;;;;;;6.32;1.63;;;;;;;2.50;100.00;99133.88;5072602;28;20110;-78
2023/12/23 05:22:56;;;;;;;7.32;1.33;;;;;;;2.50;100.00;99131.25;5089153;28;20020;-77
2023/12/23 05:25:21;;;;;;;6.43;1.58;;;;;;;2.53;100.00;99146.78;5060721;28;20036;-78
2023/12/23 05:27:46;;;;;;;6.33;1.27;;;;;;;2.51;100.00;99135.56;5082790;28;20550;-78
2023/12/23 05:30:12;;;;;;;9.48;1.30;;;;;;;2.54;100.00;99143.16;5081168;28;20094;-77
2023/12/23 05:32:38;;;;;;;6.97;1.23;;;;;;;2.38;100.00;99126.38;5069892;28;20024;-76
2023/12/23 05:35:03;;;;;;;7.32;1.20;;;;;;;2.53;100.00;99146.78;5085861;28;20039;-78
2023/12/23 05:37:29;;;;;;;9.95;1.77;;;;;;;2.58;100.00;99164.78;5089689;28;20020;-78
2023/12/23 05:39:54;;;;;;;11.65;1.65;;;;;;;2.47;100.00;99152.63;5089284;28;20031;-78
2023/12/23 05:42:19;;;;;;;10.00;2.03;;;;;;;2.47;100.00;99173.72;5090014;28;20067;-78
2023/12/23 05:44:45;;;;;;;7.85;1.58;;;;;;;2.40;100.00;99177.09;5071885;28;20282;-78
2023/12/23 05:47:12;;;;;;;10.05;1.20;;;;;;;2.44;100.00;99228.50;5080852;28;20040;-78
2023/12/23 05:49:37;;;;;;;;;;;;;;;2.30;100.00;99248.25;5073047;28;20502;-78
2023/12/23 05:52:03;;;;;;;6.85;0.90;;;;;;;2.31;100.00;99247.28;5071323;28;19947;-79
2023/12/23 05:54:28;;;;;;;5.15;1.00;;;;;;;2.29;100.00;99244.81;5067573;28;20029;-77
2023/12/23 05:56:53;;;;;;;5.77;1.00;;;;;;;2.23;100.00;99240.13;5084195;28;20104;-78
2023/12/23 05:59:19;;;;;;;2.40;0.60;;;;;;;2.24;100.00;99240.94;5088710;28;20301;-77
2023/12/23 06:01:44;;;;;;;1.30;0.30;;;;;;;1.98;100.00;99207.38;5083601;28;20036;-77
2023/12/23 06:04:09;;;;;;;1.45;0.60;;;;;;;1.96;100.00;99225.13;5061307;28;20032;-77
2023/12/23 06:06:35;;;;;;;4.30;0.40;;;;;;;1.87;100.00;99220.72;5085129;28;20449;-77
2023/12/23 06:09:00;;;;;;;4.45;0.50;;;;;;;1.95;100.00;99238.44;5084818;28;20081;-78
2023/12/23 06:11:25;;;;;;;2.40;0.70;;;;;;;1.96;100.00;99243.53;5087901;28;20035;-77
2023/12/23 06:13:51;;;;;;;2.50;0.70;;;;;;;2.04;100.00;99243.66;5066208;28;20412;-78
2023/12/23 06:16:16;;;;;;;21.60;1.60;;;;;;;2.08;100.00;99239.78;5090422;28;20285;-77
2023/12/23 06:18:41;;;;;;;6.20;1.03;;;;;;;2.13;100.00;99238.47;5091540;28;20637;-78
2023/12/23 06:21:07;;;;;;;2.27;0.70;;;;;;;2.07;100.00;99229.38;5074562;28;20645;-77
2023/12/23 06:23:32;;;;;;;1.25;0.38;;;;;;;1.96;100.00;99226.91;5089285;28;20854;-77
2023/12/23 06:25:58;;;;;;;5.60;1.30;;;;;;;1.87;100.00;99225.97;5079500;28;20035;-79
2023/12/23 06:28:23;;;;;;;3.33;0.65;;;;;;;1.98;100.00;99235.50;5072497;28;20033;-77
2023/12/23 06:30:49;;;;;;;7.03;1.58;;;;;;;1.87;100.00;99234.72;5086399;28;20056;-77
2023/12/23 06:33:14;;;;;;;3.75;0.70;;;;;;;1.97;100.00;99241.75;5091055;28;20031;-76
2023/12/23 06:35:39;;;;;;;6.07;1.08;;;;;;;1.85;100.00;99212.13;5075348;28;20074;-78
2023/12/23 06:38:05;;;;;;;3.78;1.00;;;;;;;1.85;100.00;99209.50;5091372;28;20491;-78
2023/12/23 06:40:30;;;;;;;6.47;1.80;;;;;;;2.03;100.00;99223.56;5079427;28;20028;-78
2023/12/23 06:42:55;;;;;;;3.07;1.50;;;;;;;1.96;100.00;99198.78;5061853;28;20551;-78
2023/12/23 06:45:21;;;;;;;1.98;0.52;;;;;;;1.82;100.00;99186.09;5080859;28;20511;-76
2023/12/23 06:47:46;;;;;;;3.05;0.93;;;;;;;1.84;100.00;99205.22;5084619;28;20046;-77
2023/12/23 06:50:12;;;;;;;5.25;1.00;;;;;;;1.83;100.00;99209.66;5085301;28;20085;-77
2023/12/23 06:52:37;;;;;;;7.65;1.95;;;;;;;1.72;100.00;99220.34;5082289;28;20028;-77
2023/12/23 06:55:03;;;;;;;4.80;0.90;;;;;;;1.63;100.00;99216.75;5066565;28;20499;-77
2023/12/23 06:57:28;;;;;;;5.43;0.90;;;;;;;1.62;100.00;99217.75;5086209;28;20035;-78
2023/12/23 06:59:56;;;;;;;6.80;0.87;;;;;;;1.59;100.00;99215.41;5073562;28;20043;-77
2023/12/23 07:02:22;;;;;;;4.40;0.77;;;;;;;1.69;100.00;99246.97;5088073;28;20895;-78
2023/12/23 07:04:47;;;;;;;4.72;1.45;;;;;;;1.67;100.00;99226.03;5084611;28;20062;-77
2023/12/23 07:07:13;;;;;;;5.03;1.55;;;;;;;1.56;100.00;99226.19;5082260;28;20540;-78
2023/12/23 07:09:38;;;;;;;6.80;0.52;;;;;;;1.67;100.00;99238.38;5090221;28;20048;-77
2023/12/23 07:12:04;;;;;;;6.53;1.35;;;;;;;1.72;100.00;99243.22;5065347;28;20052;-77
2023/12/23 07:14:30;;;;;;;2.38;0.80;;;;;;;1.68;100.00;99232.13;5089829;28;20036;-77
2023/12/23 07:16:55;;;;;;;3.05;0.88;;;;;;;1.81;100.00;99240.56;5084095;28;20395;-77
2023/12/23 07:19:20;;;;;;;9.73;1.03;;;;;;;1.71;100.00;99215.22;5074273;28;20037;-77
2023/12/23 07:21:48;;;;;;;14.02;0.85;;;;;;;1.60;100.00;99217.06;5085781;28;20367;-77
2023/12/23 07:24:13;;;;;;;5.70;1.13;;;;;;;1.74;100.00;99231.56;5074006;28;20020;-77
2023/12/23 07:26:39;;;;;;;7.93;0.98;;;;;;;1.81;100.00;99242.34;5089007;28;20036;-78
2023/12/23 07:29:04;;;;;;;3.23;1.40;;;;;;;1.81;100.00;99251.06;5065141;28;20064;-77
2023/12/23 07:31:32;;;;;;;5.38;1.98;;;;;;;1.76;100.00;99239.34;5065361;28;20278;-77
2023/12/23 07:34:00;;;;;;;3.60;0.85;;;;;;;1.79;100.00;99245.13;5091639;28;20423;-77
2023/12/23 07:36:26;;;;;;;7.25;1.27;;;;;;;1.78;100.00;99225.06;5090514;28;20726;-77
2023/12/23 07:38:51;;;;;;;5.03;1.35;;;;;;;1.87;100.00;99250.50;5089999;28;20071;-77
2023/12/23 07:41:16;;;;;;;6.72;0.88;;;;;;;1.90;100.00;99257.28;5090547;28;20043;-75
2023/12/23 07:43:42;;;;;;;5.57;1.20;;;;;;;1.83;100.00;99251.75;5068450;28;20028;-77
2023/12/23 07:46:08;;;;;;;4.85;0.95;;;;;;;1.82;100.00;99257.97;5079506;28;20033;-77
2023/12/23 07:48:33;;;;;;;3.17;0.60;;;;;;;1.76;100.00;99234.06;5073209;28;20390;-78
2023/12/23 07:51:06;;;;;;;8.80;1.20;;;;;;;1.79;100.00;99239.03;5089973;28;20568;-76
2023/12/23 07:53:32;;;;;;;5.10;1.80;;;;;;;1.65;100.00;99251.66;5089798;28;20407;-77
2023/12/23 07:55:57;;;;;;;3.67;1.05;;;;;;;1.87;100.00;99260.19;5090057;28;20020;-76
2023/12/23 07:58:23;;;;;;;2.85;0.88;;;;;;;1.74;100.00;99254.44;5073040;28;20043;-77
2023/12/23 08:00:48;;;;;;;5.57;1.73;;;;;;;1.90;100.00;99270.44;5091410;28;20399;-77
2023/12/23 08:03:14;;;;;;;3.95;1.10;;;;;;;1.80;100.00;99265.22;5072629;28;20044;-77
2023/12/23 08:05:39;;;;;;;2.90;1.20;;;;;;;1.80;100.00;99269.63;5083103;28;20067;-77
2023/12/23 08:08:05;;;;;;;11.30;1.40;;;;;;;1.85;100.00;99273.50;5065381;28;20113;-78
2023/12/23 08:10:30;;;;;;;17.20;2.20;;;;;;;1.84;100.00;99258.69;5087226;28;20290;-77
2023/12/23 08:12:56;;;;;;;5.78;1.02;;;;;;;1.83;100.00;99258.84;5077599;28;20027;-78
2023/12/23 08:15:21;;;;;;;12.05;1.45;;;;;;;1.81;100.00;99252.88;5088591;28;20058;-77
2023/12/23 08:17:47;;;;;;;6.97;1.45;;;;;;;1.91;100.00;99251.03;5089946;28;20024;-76
2023/12/23 08:20:12;;;;;;;5.75;0.95;;;;;;;1.93;100.00;99238.56;5072466;28;20076;-77
2023/12/23 08:22:37;;;;;;;5.68;1.35;;;;;;;2.03;100.00;99246.44;5089889;28;20043;-77
2023/12/23 08:25:03;;;;;;;4.43;1.00;;;;;;;2.07;100.00;99238.09;5090597;28;20043;-78
2023/12/23 08:27:28;;;;;;;3.53;1.00;;;;;;;2.11;100.00;99233.38;5090530;28;20028;-77
2023/12/23 08:29:54;;;;;;;11.63;1.67;;;;;;;2.15;100.00;99220.75;5082987;28;20028;-77
2023/12/23 08:32:19;;;;;;;6.90;1.52;;;;;;;2.06;100.00;99215.38;5072111;28;20048;-77
2023/12/23 08:34:46;;;;;;;7.72;1.65;;;;;;;2.04;100.00;99214.69;5089407;28;20046;-76
2023/12/23 08:37:11;;;;;;;6.75;1.15;;;;;;;1.99;100.00;99216.94;5082386;28;20023;-76
2023/12/23 08:39:37;;;;;;;6.68;1.45;;;;;;;2.06;100.00;99232.97;5089342;28;20044;-77
2023/12/23 08:42:02;;;;;;;7.85;1.92;;;;;;;2.07;100.00;99224.13;5089212;28;20054;-76
2023/12/23 08:44:27;;;;;;;10.85;1.33;;;;;;;2.10;100.00;99236.97;5069804;28;20035;-77
2023/12/23 08:46:53;;;;;;;13.53;3.17;;;;;;;2.13;100.00;99238.47;5084739;28;20036;-77
2023/12/23 08:49:18;;;;;;;8.68;1.35;;;;;;;2.14;100.00;99234.91;5089158;28;20036;-77
2023/12/23 08:51:43;;;;;;;6.28;1.38;;;;;;;2.32;100.00;99231.34;5064327;28;20031;-76
2023/12/23 08:54:09;;;;;;;12.37;1.30;;;;;;;2.90;100.00;99296.06;5087701;28;20028;-77
2023/12/23 08:56:34;;;;;;;5.72;1.42;;;;;;;2.74;100.00;99253.72;5082348;28;20020;-76
2023/12/23 08:58:59;;;;;;;4.93;1.40;;;;;;;2.66;100.00;99214.06;5089342;28;20038;-77
2023/12/23 09:01:25;;;;;;;12.88;2.47;;;;;;;2.60;100.00;99193.59;5090244;28;20071;-77
2023/12/23 09:03:50;;;;;;;7.88;1.85;;;;;;;2.62;100.00;99191.63;5087790;28;20032;-77
2023/12/23 09:06:17;;;;;;;6.47;1.40;;;;;;;2.51;100.00;99167.16;5071759;28;20498;-77
2023/12/23 09:08:42;;;;;;;3.08;0.77;;;;;;;2.42;100.00;99139.09;5088944;28;20080;-76
2023/12/23 09:11:08;;;;;;;4.40;1.38;;;;;;;2.46;100.00;99143.09;5086916;28;20127;-78
2023/12/23 09:13:33;;;;;;;5.40;1.17;;;;;;;2.47;100.00;99118.38;5091293;28;20032;-78
2023/12/23 09:16:03;;;;;;;5.93;0.93;;;;;;;2.46;100.00;99102.75;5082410;28;20293;-77
2023/12/23 09:18:28;;;;;;;10.95;2.45;;;;;;;2.42;100.00;99078.50;5090612;28;20853;-77
2023/12/23 09:20:53;;;;;;;1.73;0.77;;;;;;;2.56;100.00;99071.88;5084480;28;20060;-77
2023/12/23 09:23:19;;;;;;;4.55;1.10;;;;;;;2.46;100.00;99047.44;5069168;28;20494;-78
2023/12/23 09:25:44;;;;;;;5.82;0.88;;;;;;;2.47;100.00;99041.16;5070627;28;20334;-77
2023/12/23 09:28:09;;;;;;;3.87;0.63;;;;;;;2.47;100.00;99030.63;5078904;28;20032;-77
2023/12/23 09:30:35;;;;;;;5.07;1.25;;;;;;;2.64;100.00;99042.94;5087795;28;20284;-78
2023/12/23 09:33:00;;;;;;;6.15;1.00;;;;;;;2.72;100.00;99050.09;5082029;28;20407;-76
2023/12/23 09:35:25;;;;;;;4.75;0.75;;;;;;;2.74;100.00;99033.16;5078897;28;20048;-78
2023/12/23 09:37:51;;;;;;;4.10;0.60;;;;;;;2.85;100.00;99034.69;5073299;28;20024;-78
2023/12/23 09:40:16;;;;;;;3.67;0.70;;;;;;;2.75;100.00;99018.97;5063945;28;20282;-78
2023/12/23 09:42:42;;;;;;;3.35;0.90;;;;;;;2.76;100.00;99014.53;5088890;28;20065;-78
2023/12/23 09:45:08;;;;;;;5.65;0.77;;;;;;;2.82;100.00;99002.56;5064444;28;20033;-78
2023/12/23 09:47:33;;;;;;;;;;;;;;;2.70;100.00;98983.53;5090491;28;20092;-77
2023/12/23 09:49:59;;;;;;;3.53;0.70;;;;;;;2.78;100.00;98990.66;5092008;28;20397;-77
2023/12/23 09:52:24;;;;;;;4.65;1.00;;;;;;;2.68;100.00;98969.69;5093829;28;20036;-76
2023/12/23 09:54:53;;;;;;;5.45;0.65;;;;;;;2.89;100.00;98978.06;5075232;28;20048;-77
2023/12/23 09:57:19;;;;;;;2.85;0.60;;;;;;;2.92;100.00;98980.38;5085278;28;20725;-78
2023/12/23 09:59:44;;;;;;;;;;;;;;;3.05;100.00;98965.94;5068800;28;20109;-77
2023/12/23 10:02:09;;;;;;;3.53;0.80;;;;;;;3.03;100.00;98945.00;5091944;28;19966;-77
2023/12/23 10:04:35;;;;;;;5.87;0.80;;;;;;;3.03;100.00;98944.19;5081366;28;20025;-75
2023/12/23 10:07:00;;;;;;;3.63;0.65;;;;;;;3.10;100.00;98966.28;5069972;28;20674;-77
2023/12/23 10:09:29;;;;;;;3.93;0.50;;;;;;;2.92;100.00;98943.47;5068066;28;20406;-77
2023/12/23 10:11:54;;;;;;;2.35;0.93;;;;;;;3.05;100.00;98958.84;5090305;28;20329;-77
2023/12/23 10:14:20;;;;;;;5.22;0.82;;;;;;;3.04;100.00;98954.56;5084076;28;20072;-78
2023/12/23 10:16:46;;;;;;;6.82;0.80;;;;;;;3.10;100.00;98964.47;5083342;28;20028;-77
2023/12/23 10:19:12;;;;;;;2.45;0.70;;;;;;;3.12;100.00;98973.06;5092442;28;20036;-76
2023/12/23 10:21:37;;;;;;;3.50;0.52;;;;;;;3.23;100.00;98985.16;5054393;28;20040;-76
2023/12/23 10:24:04;;;;;;;11.15;1.25;;;;;;;3.16;100.00;98992.88;5071314;28;20044;-77
2023/12/23 10:26:30;;;;;;;4.90;1.45;;;;;;;3.18;100.00;99000.59;5085643;28;20941;-77
2023/12/23 10:29:03;;;;;;;1.50;0.70;;;;;;;3.21;100.00;99004.72;5068800;28;20130;-76
2023/12/23 10:31:31;;;;;;;3.22;0.68;;;;;;;3.36;100.00;99033.00;5069855;28;20078;-77
2023/12/23 10:34:02;;;;;;;5.25;1.13;;;;;;;3.36;100.00;99024.25;5080405;28;20387;-78
2023/12/23 10:36:27;;;;;;;3.38;1.23;;;;;;;3.24;100.00;99023.72;5082455;28;20043;-77
2023/12/23 10:38:58;;;;;;;6.10;1.33;;;;;;;3.12;100.00;99046.91;5090980;28;20028;-78
2023/12/23 10:41:23;;;;;;;4.65;1.58;;;;;;;3.22;100.00;99046.78;5065008;28;20036;-77
2023/12/23 10:43:50;;;;;;;6.80;1.10;;;;;;;3.40;100.00;99091.56;5073987;28;20376;-77
2023/12/23 10:46:16;;;;;;;2.47;1.08;;;;;;;3.55;100.00;99087.34;5084433;28;20098;-77
2023/12/23 10:48:43;;;;;;;4.03;1.90;;;;;;;3.53;100.00;99068.19;5082601;28;20394;-77
2023/12/23 10:51:10;;;;;;;8.48;1.20;;;;;;;3.75;100.00;99095.84;5076915;28;20040;-76
2023/12/23 10:53:36;;;;;;;5.57;1.02;;;;;;;3.95;100.00;99082.38;5070209;28;20081;-77
2023/12/23 10:56:02;;;;;;;5.15;1.15;;;;;;;3.79;100.00;99039.13;5068908;28;20032;-77
2023/12/23 10:58:29;;;;;;;7.25;1.30;;;;;;;3.81;100.00;99046.84;5089010;28;20028;-77
2023/12/23 11:00:56;;;;;;;3.80;1.48;;;;;;;4.17;100.00;99095.00;5090392;28;20048;-77
2023/12/23 11:03:24;;;;;;;7.50;2.80;;;;;;;4.17;100.00;99050.09;5071545;28;20056;-77
2023/12/23 11:05:51;;;;;;;4.28;1.63;;;;;;;4.33;100.00;99037.88;5071411;28;20039;-77
2023/12/23 11:08:21;;;;;;;12.43;1.80;;;;;;;4.14;100.00;98984.34;5084714;28;20062;-76
2023/12/23 11:10:47;;;;;;;7.03;1.25;;;;;;;4.29;100.00;99031.28;5087776;28;20036;-77
2023/12/23 11:13:15;;;;;;;11.80;1.30;;;;;;;4.56;100.00;99059.19;5084639;28;20031;-76
2023/12/23 11:15:40;;;;;;;7.53;1.48;;;;;;;4.63;100.00;99034.56;5079397;28;20899;-78
2023/12/23 11:18:08;;;;;;;11.68;2.33;;;;;;;4.48;100.00;98999.25;5072087;28;20035;-77
2023/12/23 11:20:36;;;;;;;15.43;2.55;;;;;;;4.49;100.00;99013.28;5088401;28;20628;-78
2023/12/23 11:23:29;;;;;;;4.15;1.38;;;;;;;4.40;100.00;99005.38;5076441;28;20039;-77
2023/12/23 11:25:55;;;;;;;7.28;1.33;;;;;;;4.30;100.00;99028.47;5077752;28;20055;-78